createdAt,value
2023-02-07T00:00:55.049Z,66.97
2023-02-07T00:03:27.040Z,66.10
2023-02-07T00:06:09.532Z,65.55
2023-02-07T00:08:42.454Z,60.40
2023-02-07T00:11:17.393Z,62.55
2023-02-07T00:13:53.442Z,61.10
2023-02-07T00:16:26.491Z,58.20
2023-02-07T00:19:00.245Z,59.78
2023-02-07T00:21:32.531Z,55.22
2023-02-07T00:24:04.816Z,59.75
2023-02-07T00:26:36.833Z,59.05
2023-02-07T00:29:08.801Z,57.25
2023-02-07T00:31:41.086Z,60.38
2023-02-07T00:34:13.485Z,57.47
2023-02-07T00:36:45.461Z,58.45
2023-02-07T00:39:18.329Z,54.35
2023-02-07T00:41:50.854Z,55.00
2023-02-07T00:44:22.857Z,53.38
2023-02-07T00:46:54.844Z,56.55
2023-02-07T00:49:27.437Z,57.72
2023-02-07T00:51:59.365Z,55.47
2023-02-07T00:54:31.368Z,57.40
2023-02-07T00:57:03.350Z,58.05
2023-02-07T00:59:35.340Z,55.38
2023-02-07T01:02:07.282Z,53.75
2023-02-07T01:04:39.340Z,56.83
2023-02-07T01:07:11.516Z,56.08
2023-02-07T01:09:43.792Z,55.95
2023-02-07T01:12:15.745Z,60.45
2023-02-07T01:14:47.745Z,58.45
2023-02-07T01:17:19.789Z,52.30
2023-02-07T01:19:56.160Z,55.25
2023-02-07T01:22:29.742Z,57.30
2023-02-07T01:25:01.739Z,53.90
2023-02-07T01:27:34.884Z,54.58
2023-02-07T01:30:07.245Z,54.63
2023-02-07T01:32:39.510Z,57.50
2023-02-07T01:35:11.571Z,54.80
2023-02-07T01:37:43.529Z,56.40
2023-02-07T01:40:15.720Z,56.75
2023-02-07T01:42:47.682Z,58.90
2023-02-07T01:45:39.534Z,61.80
2023-02-07T01:48:17.383Z,58.20
2023-02-07T01:50:51.989Z,57.58
2023-02-07T01:53:26.639Z,60.13
2023-02-07T01:56:03.044Z,56.13
2023-02-07T01:58:36.745Z,54.80
2023-02-07T02:01:17.231Z,55.13
2023-02-07T02:06:26.223Z,53.65
2023-02-07T02:09:00.465Z,54.13
2023-02-07T02:12:12.439Z,53.70
2023-02-07T02:15:26.571Z,52.33
2023-02-07T02:18:10.575Z,49.15
2023-02-07T02:21:13.095Z,49.83
2023-02-07T02:24:10.528Z,50.03
2023-02-07T02:26:56.250Z,50.78
2023-02-07T02:29:59.009Z,48.33
2023-02-07T02:32:52.311Z,54.65
2023-02-07T02:35:52.430Z,52.08
2023-02-07T02:38:39.766Z,51.05
2023-02-07T02:41:16.048Z,50.28
2023-02-07T02:43:52.278Z,52.95
2023-02-07T02:46:39.142Z,54.90
2023-02-07T02:49:14.619Z,57.00
2023-02-07T02:51:50.833Z,56.20
2023-02-07T02:54:34.760Z,56.13
2023-02-07T02:57:44.346Z,53.78
2023-02-07T03:00:50.446Z,56.60
2023-02-07T03:04:07.078Z,52.17
2023-02-07T03:06:49.631Z,55.65
2023-02-07T03:09:44.400Z,55.05
2023-02-07T03:12:25.067Z,54.90
2023-02-07T03:17:58.072Z,52.35
2023-02-07T03:20:34.930Z,53.22
2023-02-07T03:23:09.462Z,55.80
2023-02-07T03:25:42.960Z,53.08
2023-02-07T03:28:17.403Z,53.67
2023-02-07T03:30:52.228Z,52.55
2023-02-07T03:33:25.869Z,48.72
2023-02-07T03:36:17.001Z,50.90
2023-02-07T03:38:49.007Z,54.55
2023-02-07T03:41:44.759Z,48.92
2023-02-07T03:44:21.600Z,51.40
2023-02-07T03:46:55.094Z,50.70
2023-02-07T03:49:27.320Z,48.78
2023-02-07T03:52:00.782Z,45.80
2023-02-07T03:54:32.932Z,47.38
2023-02-07T03:57:05.504Z,48.97
2023-02-07T03:59:37.541Z,50.97
2023-02-07T04:02:09.625Z,45.83
2023-02-07T04:04:41.960Z,48.15
2023-02-07T04:07:14.024Z,48.17
2023-02-07T04:09:45.929Z,45.25
2023-02-07T04:12:17.899Z,47.63
2023-02-07T04:14:49.875Z,45.40
2023-02-07T04:17:21.797Z,46.25
2023-02-07T04:19:53.878Z,45.88
2023-02-07T04:22:25.947Z,47.10
2023-02-07T04:24:58.233Z,43.63
2023-02-07T04:27:30.204Z,47.50
2023-02-07T04:30:02.299Z,48.03
2023-02-07T04:32:34.291Z,46.35
2023-02-07T04:35:06.510Z,46.00
2023-02-07T04:37:38.467Z,43.88
2023-02-07T04:40:11.033Z,47.63
2023-02-07T04:42:42.981Z,41.55
2023-02-07T04:45:15.251Z,45.25
2023-02-07T04:47:48.513Z,45.58
2023-02-07T04:50:20.462Z,46.30
2023-02-07T04:52:52.471Z,45.90
2023-02-07T04:55:24.637Z,43.17
2023-02-07T04:57:56.610Z,46.05
2023-02-07T05:00:28.811Z,47.83
2023-02-07T05:03:01.543Z,46.65
2023-02-07T05:05:33.672Z,43.58
2023-02-07T05:08:05.654Z,45.53
2023-02-07T05:10:38.611Z,43.00
2023-02-07T05:13:10.740Z,40.90
2023-02-07T05:15:43.457Z,45.10
2023-02-07T05:18:15.764Z,44.47
2023-02-07T05:20:48.054Z,42.65
2023-02-07T05:23:20.051Z,42.38
2023-02-07T05:25:51.987Z,44.13
2023-02-07T05:28:24.213Z,33.90
2023-02-07T05:30:57.225Z,40.78
2023-02-07T05:33:29.270Z,41.25
2023-02-07T05:36:05.453Z,39.25
2023-02-07T05:38:37.430Z,33.83
2023-02-07T05:41:09.390Z,38.60
2023-02-07T05:43:41.385Z,31.60
2023-02-07T05:46:13.349Z,34.85
2023-02-07T05:48:45.362Z,37.80
2023-02-07T05:51:17.452Z,40.15
2023-02-07T05:53:49.531Z,35.90
2023-02-07T05:56:22.276Z,38.15
2023-02-07T05:58:54.950Z,39.00
2023-02-07T06:01:26.916Z,39.50
2023-02-07T06:04:01.611Z,37.13
2023-02-07T06:06:33.937Z,40.80
2023-02-07T06:09:06.027Z,38.67
2023-02-07T06:11:37.996Z,36.58
2023-02-07T06:14:10.004Z,35.28
2023-02-07T06:16:42.242Z,38.03
2023-02-07T06:19:15.338Z,34.80
2023-02-07T06:21:47.296Z,35.60
2023-02-07T06:24:19.464Z,46.25
2023-02-07T06:26:51.552Z,40.28
2023-02-07T06:29:23.522Z,35.30
2023-02-07T06:31:55.514Z,31.33
2023-02-07T06:34:27.672Z,45.00
2023-02-07T06:36:59.600Z,42.58
2023-02-07T06:39:33.161Z,38.80
2023-02-07T06:42:09.443Z,46.88
2023-02-07T06:44:41.531Z,37.50
2023-02-07T06:47:13.623Z,37.05
2023-02-07T06:49:45.465Z,24.80
2023-02-07T06:52:17.685Z,37.25
2023-02-07T06:54:49.644Z,33.15
2023-02-07T06:57:21.595Z,32.65
2023-02-07T06:59:53.751Z,30.52
2023-02-07T07:02:25.769Z,34.65
2023-02-07T07:04:58.731Z,37.88
2023-02-07T07:07:30.628Z,33.78
2023-02-07T07:10:02.624Z,27.77
2023-02-07T07:12:34.834Z,33.10
2023-02-07T07:15:07.490Z,26.73
2023-02-07T07:17:39.474Z,27.80
2023-02-07T07:20:11.905Z,36.92
2023-02-07T07:22:44.108Z,35.03
2023-02-07T07:25:16.109Z,27.38
2023-02-07T07:27:48.376Z,28.08
2023-02-07T07:30:20.805Z,28.15
2023-02-07T07:32:52.776Z,29.38
2023-02-07T07:35:24.721Z,28.45
2023-02-07T07:37:57.395Z,27.42
2023-02-07T07:40:30.158Z,28.55
2023-02-07T07:43:02.344Z,38.78
2023-02-07T07:45:37.587Z,31.00
2023-02-07T07:48:09.624Z,29.48
2023-02-07T07:50:42.047Z,29.80
2023-02-07T07:53:15.097Z,28.50
2023-02-07T07:55:56.300Z,29.05
2023-02-07T07:58:29.261Z,30.10
2023-02-07T08:01:01.298Z,29.13
2023-02-07T08:03:33.328Z,32.28
2023-02-07T08:06:05.770Z,30.17
2023-02-07T08:08:37.946Z,32.45
2023-02-07T08:11:10.619Z,28.75
2023-02-07T08:13:42.716Z,32.58
2023-02-07T08:16:15.427Z,31.77
2023-02-07T08:18:47.436Z,30.50
2023-02-07T08:21:19.707Z,30.35
2023-02-07T08:23:51.777Z,31.08
2023-02-07T08:26:23.731Z,26.10
2023-02-07T08:28:55.696Z,28.27
2023-02-07T08:31:27.712Z,25.77
2023-02-07T08:33:59.708Z,28.40
2023-02-07T08:36:31.682Z,27.33
2023-02-07T08:39:06.365Z,25.33
2023-02-07T08:41:38.572Z,23.33
2023-02-07T08:44:10.989Z,25.02
2023-02-07T08:46:43.281Z,24.38
2023-02-07T08:49:15.262Z,23.63
2023-02-07T08:51:47.449Z,26.88
2023-02-07T08:54:20.091Z,29.33
2023-02-07T08:56:52.065Z,35.45
2023-02-07T08:59:24.210Z,55.60
2023-02-07T09:01:56.244Z,31.75
2023-02-07T09:04:28.455Z,27.20
2023-02-07T09:07:00.454Z,24.25
2023-02-07T09:09:33.443Z,37.83
2023-02-07T09:12:05.636Z,26.50
2023-02-07T09:14:39.611Z,26.70
2023-02-07T09:17:13.048Z,31.27
2023-02-07T09:19:45.013Z,37.13
2023-02-07T09:22:17.427Z,31.73
2023-02-07T09:24:49.585Z,27.58
2023-02-07T09:27:21.612Z,29.65
2023-02-07T09:29:53.536Z,29.05
2023-02-07T09:32:26.004Z,31.17
2023-02-07T09:34:58.727Z,29.70
2023-02-07T09:37:34.864Z,30.48
2023-02-07T09:40:19.602Z,28.40
2023-02-07T09:42:58.827Z,26.30
2023-02-07T09:45:37.985Z,26.33
2023-02-07T09:48:45.892Z,27.33
2023-02-07T09:51:21.285Z,28.42
2023-02-07T09:54:00.618Z,27.80
2023-02-07T09:56:35.465Z,30.00
2023-02-07T09:59:31.001Z,36.95
2023-02-07T10:02:15.282Z,33.60
2023-02-07T10:04:50.699Z,30.05
2023-02-07T10:07:22.895Z,29.70
2023-02-07T10:09:54.845Z,37.55
2023-02-07T10:12:33.487Z,31.70
2023-02-07T10:15:10.450Z,30.23
2023-02-07T10:18:05.392Z,30.23
2023-02-07T10:20:41.563Z,27.88
2023-02-07T10:23:32.618Z,28.90
2023-02-07T10:26:17.350Z,28.95
2023-02-07T10:29:26.456Z,34.00
2023-02-07T10:32:03.996Z,28.00
2023-02-07T10:34:40.333Z,29.30
2023-02-07T10:37:20.153Z,26.38
2023-02-07T10:40:07.032Z,28.70
2023-02-07T10:42:40.639Z,26.27
2023-02-07T10:45:14.959Z,29.70
2023-02-07T10:47:46.984Z,26.25
2023-02-07T10:50:29.780Z,24.80
2023-02-07T10:53:02.167Z,24.92
2023-02-07T10:55:45.145Z,26.20
2023-02-07T10:58:23.913Z,25.02
2023-02-07T11:00:57.315Z,25.80
2023-02-07T11:03:31.335Z,23.40
2023-02-07T11:06:08.292Z,25.38
2023-02-07T11:08:41.523Z,27.48
2023-02-07T11:11:33.550Z,25.55
2023-02-07T11:14:07.609Z,29.00
2023-02-07T11:16:47.356Z,28.10
2023-02-07T11:19:23.496Z,23.98
2023-02-07T11:22:19.907Z,24.88
2023-02-07T11:25:01.266Z,34.10
2023-02-07T11:27:40.505Z,25.60
2023-02-07T11:30:17.785Z,44.75
2023-02-07T11:33:02.342Z,29.48
2023-02-07T11:35:34.221Z,31.35
2023-02-07T11:38:16.111Z,27.88
2023-02-07T11:40:49.063Z,25.67
2023-02-07T11:43:26.144Z,23.40
2023-02-07T11:46:03.972Z,21.17
2023-02-07T11:48:38.865Z,22.27
2023-02-07T11:51:17.645Z,23.25
2023-02-07T11:54:11.916Z,22.55
2023-02-07T11:56:49.044Z,24.48
2023-02-07T11:59:24.426Z,25.63
2023-02-07T12:02:26.913Z,25.80
2023-02-07T12:05:30.420Z,18.58
2023-02-07T12:08:15.673Z,29.23
2023-02-07T12:10:51.827Z,22.55
2023-02-07T12:13:32.889Z,25.45
2023-02-07T12:16:11.825Z,33.10
2023-02-07T12:19:11.743Z,32.63
2023-02-07T12:21:55.065Z,23.30
2023-02-07T12:24:33.393Z,20.75
2023-02-07T12:27:18.559Z,20.27
2023-02-07T12:30:14.429Z,20.05
2023-02-07T12:32:49.558Z,22.40
2023-02-07T12:35:27.258Z,23.95
2023-02-07T12:38:21.974Z,26.15
2023-02-07T12:40:59.761Z,21.55
2023-02-07T12:43:36.224Z,21.48
2023-02-07T12:46:21.964Z,25.00
2023-02-07T12:49:24.393Z,47.67
2023-02-07T12:52:21.215Z,28.02
2023-02-07T12:55:02.078Z,27.80
2023-02-07T12:57:49.311Z,29.60
2023-02-07T13:00:31.470Z,41.22
2023-02-07T13:03:11.399Z,23.48
2023-02-07T13:05:58.355Z,26.93
2023-02-07T13:08:48.572Z,35.95
2023-02-07T13:11:26.876Z,31.60
2023-02-07T13:14:11.794Z,27.95
2023-02-07T13:16:53.204Z,31.90
2023-02-07T13:19:31.198Z,35.08
2023-02-07T13:22:12.304Z,21.48
2023-02-07T13:24:47.842Z,42.42
2023-02-07T13:27:22.159Z,27.33
2023-02-07T13:29:54.433Z,30.23
2023-02-07T13:32:28.208Z,29.38
2023-02-07T13:35:08.163Z,38.33
2023-02-07T13:38:18.042Z,26.63
2023-02-07T13:41:04.806Z,24.40
2023-02-07T13:44:09.384Z,23.90
2023-02-07T13:46:56.896Z,36.10
2023-02-07T13:49:54.668Z,24.30
2023-02-07T13:52:45.063Z,24.60
2023-02-07T13:55:20.051Z,34.60
2023-02-07T13:58:11.489Z,39.67
2023-02-07T14:00:56.395Z,25.63
2023-02-07T14:03:32.180Z,27.45
2023-02-07T14:06:23.989Z,32.47
2023-02-07T14:09:16.745Z,29.65
2023-02-07T14:12:02.211Z,28.85
2023-02-07T14:14:37.899Z,30.90
2023-02-07T14:17:35.298Z,28.83
2023-02-07T14:20:33.163Z,30.17
2023-02-07T14:23:20.072Z,33.80
2023-02-07T14:25:52.189Z,32.00
2023-02-07T14:28:36.687Z,29.27
2023-02-07T14:31:21.196Z,32.13
2023-02-07T14:34:15.171Z,25.15
2023-02-07T14:36:48.566Z,27.75
2023-02-07T14:39:20.510Z,29.15
2023-02-07T14:41:53.148Z,28.15
2023-02-07T14:44:35.299Z,24.30
2023-02-07T14:47:09.762Z,22.98
2023-02-07T14:49:48.178Z,24.75
2023-02-07T14:52:32.999Z,33.05
2023-02-07T14:55:22.696Z,37.60
2023-02-07T14:58:07.775Z,29.52
2023-02-07T15:00:49.156Z,29.25
2023-02-07T15:03:21.694Z,33.15
2023-02-07T15:05:53.679Z,39.83
2023-02-07T15:08:28.214Z,40.22
2023-02-07T15:11:02.723Z,45.30
2023-02-07T15:13:41.926Z,40.72
2023-02-07T15:16:48.866Z,32.67
2023-02-07T15:19:35.018Z,37.35
2023-02-07T15:22:20.425Z,30.90
2023-02-07T15:24:59.085Z,31.73
2023-02-07T15:27:31.067Z,31.17
2023-02-07T15:30:07.488Z,29.42
2023-02-07T15:32:46.486Z,38.20
2023-02-07T15:35:31.210Z,35.97
2023-02-07T15:38:28.055Z,37.53
2023-02-07T15:41:00.421Z,42.45
2023-02-07T15:43:35.310Z,37.70
2023-02-07T15:46:10.475Z,33.80
2023-02-07T15:48:51.848Z,39.60
2023-02-07T15:51:29.363Z,38.97
2023-02-07T15:54:02.145Z,30.02
2023-02-07T15:56:34.385Z,41.65
2023-02-07T15:59:11.617Z,37.08
2023-02-07T16:01:44.078Z,33.90
2023-02-07T16:04:16.112Z,48.17
2023-02-07T16:06:58.910Z,45.08
2023-02-07T16:09:42.332Z,41.33
2023-02-07T16:12:33.181Z,37.83
2023-02-07T16:17:54.994Z,29.02
2023-02-07T16:20:28.893Z,29.27
2023-02-07T16:23:04.574Z,30.38
2023-02-07T16:25:37.274Z,28.33
2023-02-07T16:28:14.864Z,28.15
2023-02-07T16:30:46.864Z,30.67
2023-02-07T16:33:18.883Z,28.10
2023-02-07T16:35:50.841Z,31.33
2023-02-07T16:38:22.767Z,31.10
2023-02-07T16:40:54.925Z,28.70
2023-02-07T16:43:35.361Z,26.70
2023-02-07T16:46:07.454Z,30.63
2023-02-07T16:48:39.520Z,28.08
2023-02-07T16:51:11.477Z,30.85
2023-02-07T16:53:43.730Z,31.67
2023-02-07T16:56:26.031Z,39.53
2023-02-07T16:58:58.182Z,34.58
2023-02-07T17:01:30.905Z,32.85
2023-02-07T17:04:02.812Z,34.65
2023-02-07T17:06:35.150Z,31.30
2023-02-07T17:09:19.070Z,29.98
2023-02-07T17:11:52.769Z,42.78
2023-02-07T17:14:24.742Z,32.25
2023-02-07T17:16:56.746Z,32.33
2023-02-07T17:19:31.721Z,38.55
2023-02-07T17:22:03.966Z,33.80
2023-02-07T17:24:35.992Z,34.00
2023-02-07T17:27:08.009Z,34.00
2023-02-07T17:29:40.736Z,33.95
2023-02-07T17:32:12.823Z,34.42
2023-02-07T17:34:44.878Z,44.28
2023-02-07T17:37:16.877Z,41.25
2023-02-07T17:39:48.991Z,33.88
2023-02-07T17:42:20.965Z,37.17
2023-02-07T17:44:52.955Z,34.13
2023-02-07T17:47:25.263Z,37.38
2023-02-07T17:49:57.213Z,36.83
2023-02-07T17:52:29.148Z,38.13
2023-02-07T17:55:01.083Z,38.22
2023-02-07T17:57:32.982Z,34.03
2023-02-07T18:00:05.755Z,39.05
2023-02-07T18:02:38.037Z,35.67
2023-02-07T18:05:10.827Z,34.03
2023-02-07T18:07:43.656Z,33.95
2023-02-07T18:10:22.478Z,32.28
2023-02-07T18:12:54.618Z,35.83
2023-02-07T18:15:28.185Z,32.08
2023-02-07T18:18:00.261Z,33.97
2023-02-07T18:20:34.278Z,34.47
2023-02-07T18:23:06.280Z,39.42
2023-02-07T18:25:38.922Z,36.55
2023-02-07T18:28:11.043Z,37.03
2023-02-07T18:30:43.914Z,34.78
2023-02-07T18:33:17.427Z,36.13
2023-02-07T18:35:56.550Z,34.03
2023-02-07T18:38:28.581Z,32.20
2023-02-07T18:41:00.564Z,33.65
2023-02-07T18:43:32.549Z,36.58
2023-02-07T18:46:12.237Z,34.38
2023-02-07T18:48:45.324Z,36.80
2023-02-07T18:51:18.956Z,36.45
2023-02-07T18:53:51.898Z,35.55
2023-02-07T18:56:26.492Z,38.15
2023-02-07T18:58:59.360Z,34.50
2023-02-07T19:01:31.942Z,35.45
2023-02-07T19:04:04.000Z,33.63
2023-02-07T19:06:36.475Z,40.05
2023-02-07T19:09:09.610Z,43.78
2023-02-07T19:11:41.547Z,41.60
2023-02-07T19:14:19.223Z,36.72
2023-02-07T19:16:56.033Z,36.42
2023-02-07T19:19:30.772Z,38.13
2023-02-07T19:22:02.716Z,35.38
2023-02-07T19:24:34.826Z,32.00
2023-02-07T19:27:07.494Z,37.38
2023-02-07T19:29:39.648Z,36.42
2023-02-07T19:32:11.706Z,36.63
2023-02-07T19:34:43.674Z,40.38
2023-02-07T19:37:15.610Z,39.65
2023-02-07T19:39:49.369Z,36.22
2023-02-07T19:42:21.361Z,36.88
2023-02-07T19:44:53.515Z,33.83
2023-02-07T19:47:25.572Z,34.30
2023-02-07T19:49:57.568Z,34.15
2023-02-07T19:52:30.619Z,32.60
2023-02-07T19:55:02.646Z,36.75
2023-02-07T19:57:35.501Z,34.42
2023-02-07T20:00:08.386Z,53.15
2023-02-07T20:02:40.545Z,60.95
2023-02-07T20:05:12.771Z,49.05
2023-02-07T20:07:44.780Z,43.38
2023-02-07T20:10:16.681Z,44.65
2023-02-07T20:12:49.349Z,37.20
2023-02-07T20:15:21.400Z,35.97
2023-02-07T20:17:54.568Z,34.53
2023-02-07T20:20:26.661Z,35.58
2023-02-07T20:22:58.638Z,39.13
2023-02-07T20:25:33.889Z,46.92
2023-02-07T20:28:07.694Z,63.60
2023-02-07T20:30:45.369Z,55.22
2023-02-07T20:33:17.280Z,47.25
2023-02-07T20:35:49.328Z,55.05
2023-02-07T20:38:21.312Z,42.67
2023-02-07T20:40:53.454Z,52.83
2023-02-07T20:43:25.732Z,46.30
2023-02-07T20:46:10.964Z,50.45
2023-02-07T20:48:43.696Z,51.85
2023-02-07T20:51:15.623Z,50.67
2023-02-07T20:53:47.790Z,50.17
2023-02-07T20:56:20.212Z,56.08
2023-02-07T20:58:52.662Z,53.45
2023-02-07T21:01:27.431Z,44.45
2023-02-07T21:04:02.682Z,35.65
2023-02-07T21:06:35.825Z,34.80
2023-02-07T21:09:08.428Z,34.20
2023-02-07T21:11:46.159Z,42.63
2023-02-07T21:14:25.266Z,54.80
2023-02-07T21:17:01.711Z,47.95
2023-02-07T21:19:35.146Z,39.20
2023-02-07T21:22:07.905Z,35.17
2023-02-07T21:24:40.244Z,34.13
2023-02-07T21:27:12.926Z,34.80
2023-02-07T21:29:45.159Z,38.72
2023-02-07T21:32:17.261Z,37.95
2023-02-07T21:34:49.468Z,37.60
2023-02-07T21:37:21.462Z,35.83
2023-02-07T21:39:53.602Z,36.65
2023-02-07T21:42:25.599Z,36.00
2023-02-07T21:44:57.707Z,36.65
2023-02-07T21:47:29.639Z,40.38
2023-02-07T21:50:01.735Z,46.50
2023-02-07T21:52:34.339Z,42.20
2023-02-07T21:55:06.743Z,36.65
2023-02-07T21:57:41.835Z,38.30
2023-02-07T22:00:14.370Z,52.85
2023-02-07T22:02:46.403Z,73.47
2023-02-07T22:05:18.530Z,66.95
2023-02-07T22:07:50.505Z,48.65
2023-02-07T22:10:22.394Z,41.72
2023-02-07T22:12:54.457Z,56.83
2023-02-07T22:15:27.147Z,116.95
2023-02-07T22:17:59.136Z,169.05
2023-02-07T22:20:31.299Z,155.50
2023-02-07T22:23:03.219Z,120.95
2023-02-07T22:25:35.150Z,149.32
2023-02-07T22:28:07.264Z,126.72
2023-02-07T22:30:41.916Z,135.45
2023-02-07T22:33:14.188Z,142.23
2023-02-07T22:35:47.618Z,212.93
2023-02-07T22:38:19.577Z,163.45
2023-02-07T22:40:51.525Z,66.47
2023-02-07T22:43:23.412Z,77.38
2023-02-07T22:45:55.572Z,100.10
2023-02-07T22:48:27.635Z,155.32
2023-02-07T22:51:00.314Z,132.85
2023-02-07T22:53:32.265Z,84.80
2023-02-07T22:56:04.598Z,55.55
2023-02-07T22:58:37.290Z,57.70
2023-02-07T23:01:20.682Z,48.17
2023-02-07T23:03:53.419Z,44.25
2023-02-07T23:06:26.450Z,36.40
2023-02-07T23:08:59.035Z,34.15
2023-02-07T23:11:30.986Z,40.00
2023-02-07T23:14:04.284Z,37.42
2023-02-07T23:16:37.466Z,39.65
2023-02-07T23:19:15.828Z,67.93
2023-02-07T23:21:47.821Z,64.15
2023-02-07T23:24:19.818Z,63.03
2023-02-07T23:26:51.863Z,43.42
2023-02-07T23:29:23.842Z,41.63
2023-02-07T23:31:55.915Z,34.08
2023-02-07T23:34:27.932Z,44.50
2023-02-07T23:37:02.790Z,36.30
2023-02-07T23:39:35.297Z,33.58
2023-02-07T23:42:10.723Z,31.95
2023-02-07T23:44:42.631Z,36.30
2023-02-07T23:47:14.691Z,37.35
2023-02-07T23:49:46.608Z,39.22
2023-02-07T23:52:18.578Z,48.78
2023-02-07T23:54:50.571Z,44.42
2023-02-07T23:57:22.557Z,43.13
2023-02-07T23:59:54.966Z,40.40
